createdAt,value
2019-03-09T00:02:15.983Z,8.02
2019-03-09T00:07:21.194Z,8.02
2019-03-09T00:12:26.346Z,7.99
2019-03-09T00:17:31.632Z,8.04
2019-03-09T00:22:37.418Z,8.03
2019-03-09T00:27:59.677Z,7.94
2019-03-09T00:33:04.873Z,7.91
2019-03-09T00:38:10.085Z,7.98
2019-03-09T00:43:15.169Z,7.94
2019-03-09T00:48:20.418Z,7.87
2019-03-09T00:53:25.500Z,7.86
2019-03-09T00:58:30.712Z,7.94
2019-03-09T01:03:36.428Z,7.93
2019-03-09T01:08:41.584Z,7.95
2019-03-09T01:13:55.986Z,7.99
2019-03-09T01:19:01.570Z,7.97
2019-03-09T01:24:06.696Z,7.96
2019-03-09T01:29:12.059Z,7.95
2019-03-09T01:34:17.086Z,8.01
2019-03-09T01:39:22.137Z,8.10
2019-03-09T01:44:27.572Z,8.11
2019-03-09T01:49:32.830Z,8.11
2019-03-09T01:54:40.038Z,8.17
2019-03-09T01:59:45.417Z,8.16
2019-03-09T02:04:50.523Z,8.09
2019-03-09T02:09:57.068Z,8.08
2019-03-09T02:15:02.140Z,8.10
2019-03-09T02:20:09.176Z,8.10
2019-03-09T02:25:16.139Z,8.12
2019-03-09T02:30:21.307Z,8.09
2019-03-09T02:35:26.422Z,8.11
2019-03-09T02:40:31.609Z,8.13
2019-03-09T02:45:36.669Z,8.14
2019-03-09T02:50:56.185Z,8.12
2019-03-09T02:56:01.832Z,8.15
2019-03-09T03:01:24.120Z,8.13
2019-03-09T03:06:29.290Z,8.08
2019-03-09T03:11:37.303Z,8.05
2019-03-09T03:16:42.582Z,8.02
2019-03-09T03:21:48.711Z,7.96
2019-03-09T03:26:53.769Z,7.97
2019-03-09T03:31:58.803Z,7.99
2019-03-09T03:37:04.535Z,7.94
2019-03-09T03:42:10.266Z,7.95
2019-03-09T03:47:16.666Z,8.02
2019-03-09T03:52:22.102Z,8.07
2019-03-09T03:57:29.399Z,8.10
2019-03-09T04:02:35.975Z,8.09
2019-03-09T04:07:45.045Z,8.05
2019-03-09T04:12:50.812Z,8.06
2019-03-09T04:17:56.034Z,8.05
2019-03-09T04:23:01.497Z,7.98
2019-03-09T04:28:07.101Z,7.96
2019-03-09T04:33:12.378Z,7.97
2019-03-09T04:38:17.847Z,7.97
2019-03-09T04:43:22.917Z,7.92
2019-03-09T04:48:28.625Z,7.93
2019-03-09T04:53:34.341Z,7.93
2019-03-09T04:58:41.247Z,8.02
2019-03-09T05:03:54.206Z,8.07
2019-03-09T05:09:29.569Z,8.09
2019-03-09T05:14:35.151Z,8.12
2019-03-09T05:19:41.031Z,8.18
2019-03-09T05:24:46.838Z,8.21
2019-03-09T05:29:52.201Z,8.16
2019-03-09T05:34:57.475Z,8.18
2019-03-09T05:40:02.829Z,8.10
2019-03-09T05:45:08.392Z,8.00
2019-03-09T05:50:13.707Z,7.91
2019-03-09T05:55:20.857Z,7.83
2019-03-09T06:00:27.183Z,7.75
2019-03-09T06:05:52.483Z,7.73
2019-03-09T06:10:58.193Z,7.76
2019-03-09T06:16:03.759Z,7.68
2019-03-09T06:21:09.444Z,7.68
2019-03-09T06:26:15.039Z,7.68
2019-03-09T06:31:20.459Z,7.71
2019-03-09T06:36:55.413Z,7.77
2019-03-09T06:42:23.782Z,7.85
2019-03-09T06:47:29.421Z,7.92
2019-03-09T06:52:34.859Z,7.97
2019-03-09T06:57:40.592Z,8.02
2019-03-09T07:02:50.953Z,8.08
2019-03-09T07:07:57.061Z,8.06
2019-03-09T07:13:02.869Z,8.04
2019-03-09T07:18:13.883Z,8.04
2019-03-09T07:23:19.968Z,8.11
2019-03-09T07:28:25.889Z,8.18
2019-03-09T07:33:31.457Z,8.22
2019-03-09T07:38:36.949Z,8.31
2019-03-09T07:43:43.326Z,8.43
2019-03-09T07:48:49.405Z,8.44
2019-03-09T07:53:54.913Z,8.53
2019-03-09T07:59:00.581Z,8.70
2019-03-09T08:04:05.982Z,8.87
2019-03-09T08:09:11.289Z,8.98
2019-03-09T08:14:16.975Z,9.12
2019-03-09T08:19:22.736Z,9.30
2019-03-09T08:24:27.925Z,9.38
2019-03-09T08:29:34.060Z,9.58
2019-03-09T08:34:39.651Z,9.68
2019-03-09T08:39:45.081Z,9.62
2019-03-09T08:44:56.049Z,9.65
2019-03-09T08:50:01.272Z,9.67
2019-03-09T08:55:07.620Z,9.81
2019-03-09T09:00:18.875Z,10.07
2019-03-09T09:05:24.712Z,10.28
2019-03-09T09:10:30.269Z,10.57
2019-03-09T09:15:35.555Z,10.66
2019-03-09T09:20:40.978Z,10.77
2019-03-09T09:25:46.642Z,10.85
2019-03-09T09:30:52.975Z,11.18
2019-03-09T09:35:59.355Z,11.36
2019-03-09T09:41:05.126Z,11.30
2019-03-09T09:46:15.911Z,11.33
2019-03-09T09:51:21.489Z,11.47
2019-03-09T09:56:27.020Z,12.66
2019-03-09T10:01:32.828Z,12.73
2019-03-09T10:06:40.080Z,11.87
2019-03-09T10:11:46.493Z,12.29
2019-03-09T10:16:51.588Z,13.13
2019-03-09T10:21:58.809Z,12.99
2019-03-09T10:27:04.113Z,12.51
2019-03-09T10:32:09.357Z,13.61
2019-03-09T10:37:14.945Z,13.55
2019-03-09T10:42:23.467Z,13.06
2019-03-09T10:47:28.823Z,13.48
2019-03-09T10:52:37.361Z,13.98
2019-03-09T10:57:42.963Z,13.49
2019-03-09T11:02:48.535Z,13.49
2019-03-09T11:07:54.895Z,13.57
2019-03-09T11:13:00.009Z,13.25
2019-03-09T11:18:05.654Z,12.90
2019-03-09T11:23:10.904Z,12.82
2019-03-09T11:28:16.156Z,12.68
2019-03-09T11:33:21.319Z,12.74
2019-03-09T11:38:27.843Z,12.85
2019-03-09T11:43:35.709Z,12.91
2019-03-09T11:48:41.484Z,12.75
2019-03-09T11:53:47.315Z,12.56
2019-03-09T11:58:52.880Z,12.57
2019-03-09T12:09:55.868Z,12.41
2019-03-09T12:15:02.451Z,12.88
2019-03-09T12:20:13.187Z,13.31
2019-03-09T12:25:22.939Z,13.19
2019-03-09T12:30:29.674Z,12.95
2019-03-09T12:35:38.749Z,12.71
2019-03-09T12:40:47.612Z,12.61
2019-03-09T12:45:57.852Z,12.60
2019-03-09T12:51:06.503Z,12.63
2019-03-09T12:56:12.095Z,12.58
2019-03-09T13:01:17.746Z,12.56
2019-03-09T13:06:23.810Z,12.46
2019-03-09T13:11:30.149Z,12.57
2019-03-09T13:16:36.359Z,12.63
2019-03-09T13:21:41.678Z,12.59
2019-03-09T13:26:47.147Z,12.86
2019-03-09T13:31:52.657Z,13.00
2019-03-09T13:36:58.306Z,12.89
2019-03-09T13:42:03.599Z,12.99
2019-03-09T13:47:09.765Z,13.08
2019-03-09T13:52:15.171Z,13.08
2019-03-09T13:57:20.600Z,13.27
2019-03-09T14:02:35.162Z,13.45
2019-03-09T14:07:40.318Z,13.31
2019-03-09T14:12:45.472Z,13.23
2019-03-09T14:17:50.603Z,13.08
2019-03-09T14:22:56.943Z,12.97
2019-03-09T14:28:02.725Z,12.98
2019-03-09T14:33:07.815Z,13.01
2019-03-09T14:38:13.587Z,13.12
2019-03-09T14:43:18.912Z,13.19
2019-03-09T14:48:28.540Z,13.32
2019-03-09T14:53:34.141Z,13.50
2019-03-09T14:58:39.479Z,13.25
2019-03-09T15:03:46.068Z,12.96
2019-03-09T15:08:51.962Z,12.92
2019-03-09T15:13:57.417Z,13.03
2019-03-09T15:19:02.890Z,12.97
2019-03-09T15:24:10.466Z,13.11
2019-03-09T15:29:15.916Z,13.26
2019-03-09T15:34:21.103Z,13.18
2019-03-09T15:39:27.747Z,13.03
2019-03-09T15:44:51.121Z,13.01
2019-03-09T15:49:56.609Z,12.97
2019-03-09T15:55:02.493Z,12.91
2019-03-09T16:00:11.208Z,12.84
2019-03-09T16:05:17.131Z,12.72
2019-03-09T16:10:22.456Z,12.61
2019-03-09T16:15:28.088Z,12.49
2019-03-09T16:20:33.783Z,12.36
2019-03-09T16:25:40.726Z,12.29
2019-03-09T16:30:48.030Z,12.21
2019-03-09T16:35:53.602Z,11.99
2019-03-09T16:40:58.833Z,11.76
2019-03-09T16:46:04.067Z,11.65
2019-03-09T16:51:09.991Z,11.65
2019-03-09T16:56:16.096Z,11.65
2019-03-09T17:01:21.233Z,11.59
2019-03-09T17:06:26.394Z,11.60
2019-03-09T17:11:33.819Z,11.59
2019-03-09T17:16:39.604Z,11.49
2019-03-09T17:21:44.959Z,11.45
2019-03-09T17:26:50.179Z,11.01
2019-03-09T17:31:55.902Z,10.76
2019-03-09T17:37:01.096Z,10.79
2019-03-09T17:42:11.879Z,10.71
2019-03-09T17:47:18.614Z,10.70
2019-03-09T17:52:23.693Z,10.64
2019-03-09T17:57:29.103Z,10.50
2019-03-09T18:02:34.524Z,10.12
2019-03-09T18:07:40.782Z,9.90
2019-03-09T18:12:46.011Z,9.71
2019-03-09T18:17:51.803Z,9.62
2019-03-09T18:22:57.204Z,9.55
2019-03-09T18:28:05.830Z,9.49
2019-03-09T18:33:10.831Z,9.47
2019-03-09T18:38:17.008Z,9.43
2019-03-09T18:43:22.220Z,9.40
2019-03-09T18:48:27.451Z,9.34
2019-03-09T18:53:32.517Z,9.36
2019-03-09T18:58:37.747Z,9.40
2019-03-09T19:03:42.976Z,9.41
2019-03-09T19:08:48.850Z,9.39
2019-03-09T19:13:55.258Z,9.32
2019-03-09T19:19:00.710Z,9.18
2019-03-09T19:24:06.280Z,9.03
2019-03-09T19:29:11.674Z,9.01
2019-03-09T19:34:17.274Z,8.98
2019-03-09T19:39:22.525Z,8.85
2019-03-09T19:44:28.171Z,8.80
2019-03-09T19:49:33.375Z,8.78
2019-03-09T19:54:39.600Z,8.69
2019-03-09T19:59:48.052Z,8.67
2019-03-09T20:04:53.196Z,8.60
2019-03-09T20:09:59.433Z,8.55
2019-03-09T20:15:05.292Z,8.51
2019-03-09T20:20:11.686Z,8.45
2019-03-09T20:25:18.188Z,8.39
2019-03-09T20:30:24.293Z,8.35
2019-03-09T20:35:29.852Z,8.27
2019-03-09T20:40:35.474Z,8.18
2019-03-09T20:45:41.429Z,8.12
2019-03-09T20:50:47.929Z,8.05
2019-03-09T20:56:12.644Z,8.00
2019-03-09T21:01:21.925Z,7.96
2019-03-09T21:06:27.643Z,7.93
2019-03-09T21:11:32.903Z,7.94
2019-03-09T21:16:39.768Z,7.87
2019-03-09T21:21:45.187Z,7.84
2019-03-09T21:26:52.246Z,7.87
2019-03-09T21:32:09.532Z,7.78
2019-03-09T21:37:15.556Z,7.75
2019-03-09T21:42:20.789Z,7.70
2019-03-09T21:47:27.122Z,7.63
2019-03-09T21:52:32.491Z,7.62
2019-03-09T21:57:37.837Z,7.59
2019-03-09T22:02:42.946Z,7.60
2019-03-09T22:07:48.193Z,7.53
2019-03-09T22:12:58.549Z,7.50
2019-03-09T22:18:04.614Z,7.45
2019-03-09T22:23:09.816Z,7.46
2019-03-09T22:28:15.167Z,7.43
2019-03-09T22:33:21.435Z,7.41
2019-03-09T22:38:26.467Z,7.40
2019-03-09T22:43:31.540Z,7.36
2019-03-09T22:48:36.761Z,7.35
2019-03-09T22:53:42.046Z,7.34
2019-03-09T22:58:48.436Z,7.29
2019-03-09T23:03:53.486Z,7.28
2019-03-09T23:08:59.108Z,7.22
2019-03-09T23:14:04.956Z,7.21
2019-03-09T23:19:09.969Z,7.17
2019-03-09T23:24:15.516Z,7.15
2019-03-09T23:29:20.569Z,7.10
2019-03-09T23:34:25.548Z,7.07
2019-03-09T23:39:31.015Z,7.06
2019-03-09T23:44:36.011Z,7.06
2019-03-09T23:49:42.012Z,6.96
2019-03-09T23:54:48.188Z,6.98
2019-03-09T23:59:53.284Z,6.97
